Flugplatz Wunstorf Airport

Bericht für ETNW

vom 21.07. um 20:20 UTC

Wind 3 kt aus 320°

Sichtweite 10 km oder mehr

gering bewölkt in 6000 ft

aufgebrochene Bewölkung in 31000 ft

Temperatur 18.0°C

Taupunkt 12.0°C

Luftfeuchtigkeit 68%

Luftdruck 1022 hPa

ETNW 212020Z 32003KT 9999 FEW060 BKN310 18/12 Q1022 BLU+

Prognose für ETNW

vom 21.07. um 00:00 UTC

Zwischen 00:00 UTC und 00:00 UTC

Wind 10 kt aus 260° in Böen 20 kt

Sichtweite 10 km oder mehr

keine signifikanten Wettererscheinungen

gering bewölkt in 5000 ft


Zwischen 00:00 und 00:00 UTC übergehend zu

Wind 6 kt aus 280°

Sichtweite 10 km oder mehr

keine signifikanten Wettererscheinungen

aufgelockert bewölkt in 18000 ft

TAF ETNW 211612Z 2117/2217 26010G20KT 9999 NSW FEW050 BECMG 2117/2119 28006KT 9999 NSW SCT180 BY ETGL
Impressum